createdAt,value
2019-05-20T00:00:23.837Z,100.00
2019-05-20T00:02:52.489Z,100.00
2019-05-20T00:05:21.125Z,100.00
2019-05-20T00:07:49.771Z,100.00
2019-05-20T00:10:18.482Z,100.00
2019-05-20T00:12:47.127Z,100.00
2019-05-20T00:15:16.036Z,100.00
2019-05-20T00:17:45.022Z,100.00
2019-05-20T00:20:13.709Z,100.00
2019-05-20T00:22:42.399Z,100.00
2019-05-20T00:25:11.582Z,100.00
2019-05-20T00:27:41.056Z,100.00
2019-05-20T00:30:10.764Z,100.00
2019-05-20T00:32:41.564Z,100.00
2019-05-20T00:35:09.891Z,100.00
2019-05-20T00:37:38.517Z,100.00
2019-05-20T00:40:07.426Z,100.00
2019-05-20T00:42:36.122Z,100.00
2019-05-20T00:45:05.442Z,100.00
2019-05-20T00:47:34.189Z,100.00
2019-05-20T00:50:03.247Z,100.00
2019-05-20T00:52:34.513Z,100.00
2019-05-20T00:55:03.218Z,100.00
2019-05-20T00:57:31.848Z,100.00
2019-05-20T01:00:00.508Z,100.00
2019-05-20T01:02:29.228Z,100.00
2019-05-20T01:04:57.879Z,100.00
2019-05-20T01:07:26.557Z,100.00
2019-05-20T01:09:55.210Z,100.00
2019-05-20T01:12:23.858Z,100.00
2019-05-20T01:14:52.518Z,100.00
2019-05-20T01:17:21.269Z,100.00
2019-05-20T01:19:50.030Z,100.00
2019-05-20T01:22:18.663Z,100.00
2019-05-20T01:24:47.303Z,100.00
2019-05-20T01:27:15.942Z,100.00
2019-05-20T01:29:44.570Z,100.00
2019-05-20T01:32:13.176Z,100.00
2019-05-20T01:34:43.598Z,100.00
2019-05-20T01:37:12.227Z,100.00
2019-05-20T01:39:40.869Z,100.00
2019-05-20T01:42:09.512Z,100.00
2019-05-20T01:44:38.209Z,100.00
2019-05-20T01:47:06.827Z,100.00
2019-05-20T01:49:35.469Z,100.00
2019-05-20T01:52:04.140Z,100.00
2019-05-20T01:54:32.856Z,100.00
2019-05-20T01:57:01.537Z,100.00
2019-05-20T01:59:30.230Z,100.00
2019-05-20T02:01:58.919Z,100.00
2019-05-20T02:04:27.615Z,100.00
2019-05-20T02:06:56.333Z,100.00
2019-05-20T02:09:25.086Z,100.00
2019-05-20T02:11:53.790Z,100.00
2019-05-20T02:14:24.661Z,100.00
2019-05-20T02:16:53.480Z,100.00
2019-05-20T02:19:22.320Z,100.00
2019-05-20T02:21:51.080Z,100.00
2019-05-20T02:24:19.883Z,100.00
2019-05-20T02:26:48.714Z,100.00
2019-05-20T02:29:17.444Z,100.00
2019-05-20T02:31:46.170Z,100.00
2019-05-20T02:34:15.001Z,100.00
2019-05-20T02:36:43.735Z,100.00
2019-05-20T02:39:12.530Z,100.00
2019-05-20T02:41:41.329Z,100.00
2019-05-20T02:44:10.004Z,100.00
2019-05-20T02:46:38.623Z,100.00
2019-05-20T02:49:07.236Z,100.00
2019-05-20T02:51:35.970Z,100.00
2019-05-20T02:54:04.784Z,100.00
2019-05-20T02:56:33.458Z,100.00
2019-05-20T02:59:02.158Z,100.00
2019-05-20T03:01:30.801Z,100.00
2019-05-20T03:04:10.556Z,100.00
2019-05-20T03:06:29.798Z,100.00
2019-05-20T03:08:58.490Z,100.00
2019-05-20T03:11:27.189Z,100.00
2019-05-20T03:13:55.890Z,100.00
2019-05-20T03:16:24.595Z,100.00
2019-05-20T03:18:53.269Z,100.00
2019-05-20T03:21:21.869Z,100.00
2019-05-20T03:23:53.621Z,100.00
2019-05-20T03:26:22.313Z,100.00
2019-05-20T03:28:51.043Z,100.00
2019-05-20T03:31:19.832Z,100.00
2019-05-20T03:33:48.657Z,100.00
2019-05-20T03:36:17.299Z,100.00
2019-05-20T03:38:46.085Z,100.00
2019-05-20T03:41:14.752Z,100.00
2019-05-20T03:43:43.501Z,100.00
2019-05-20T03:46:12.256Z,100.00
2019-05-20T03:48:40.902Z,100.00
2019-05-20T03:51:09.749Z,100.00
2019-05-20T03:53:38.444Z,100.00
2019-05-20T03:56:07.047Z,100.00
2019-05-20T03:58:35.700Z,100.00
2019-05-20T04:01:04.425Z,100.00
2019-05-20T04:03:33.120Z,100.00
2019-05-20T04:06:01.890Z,100.00
2019-05-20T04:08:30.547Z,100.00
2019-05-20T04:10:59.244Z,100.00
2019-05-20T04:13:28.024Z,100.00
2019-05-20T04:15:56.649Z,100.00
2019-05-20T04:18:25.315Z,100.00
2019-05-20T04:20:53.941Z,100.00
2019-05-20T04:23:22.658Z,100.00
2019-05-20T04:25:51.318Z,100.00
2019-05-20T04:28:19.928Z,100.00
2019-05-20T04:30:48.656Z,100.00
2019-05-20T04:33:17.281Z,100.00
2019-05-20T04:35:49.637Z,100.00
2019-05-20T04:38:16.673Z,100.00
2019-05-20T04:40:45.318Z,100.00
2019-05-20T04:43:14.029Z,100.00
2019-05-20T04:45:43.108Z,100.00
2019-05-20T04:48:13.903Z,100.00
2019-05-20T04:50:42.135Z,100.00
2019-05-20T04:53:10.793Z,100.00
2019-05-20T04:55:39.833Z,100.00
2019-05-20T04:58:08.487Z,100.00
2019-05-20T05:00:54.289Z,100.00
2019-05-20T05:03:23.208Z,100.00
2019-05-20T05:05:52.319Z,100.00
2019-05-20T05:08:21.314Z,100.00
2019-05-20T05:10:50.176Z,100.00
2019-05-20T05:13:19.182Z,100.00
2019-05-20T05:15:48.012Z,100.00
2019-05-20T05:18:16.726Z,100.00
2019-05-20T05:20:45.453Z,100.00
2019-05-20T05:23:14.253Z,100.00
2019-05-20T05:25:43.021Z,100.00
2019-05-20T05:28:11.737Z,100.00
2019-05-20T05:30:40.680Z,100.00
2019-05-20T05:33:09.391Z,100.00
2019-05-20T05:35:52.215Z,100.00
2019-05-20T05:38:18.636Z,100.00
2019-05-20T05:40:47.291Z,100.00
2019-05-20T05:43:19.168Z,100.00
2019-05-20T05:45:47.889Z,100.00
2019-05-20T05:48:16.620Z,100.00
2019-05-20T05:50:45.551Z,100.00
2019-05-20T05:53:16.997Z,100.00
2019-05-20T05:55:45.657Z,99.76
2019-05-20T05:58:14.280Z,97.81
2019-05-20T06:00:43.374Z,97.55
2019-05-20T06:03:12.103Z,95.58
2019-05-20T06:05:40.734Z,94.35
2019-05-20T06:08:11.505Z,94.44
2019-05-20T06:10:41.666Z,94.00
2019-05-20T06:13:10.363Z,92.98
2019-05-20T06:15:38.978Z,91.93
2019-05-20T06:18:07.639Z,92.54
2019-05-20T06:20:36.377Z,91.21
2019-05-20T06:23:05.094Z,91.16
2019-05-20T06:25:33.735Z,89.65
2019-05-20T06:28:04.097Z,90.15
2019-05-20T06:30:44.023Z,90.55
2019-05-20T06:33:13.269Z,88.25
2019-05-20T06:35:42.271Z,89.39
2019-05-20T06:38:33.935Z,86.93
2019-05-20T06:41:03.148Z,88.42
2019-05-20T06:43:32.031Z,88.62
2019-05-20T06:46:00.749Z,87.88
2019-05-20T06:48:29.565Z,86.43
2019-05-20T06:50:58.219Z,86.58
2019-05-20T06:53:26.940Z,86.58
2019-05-20T06:55:55.597Z,87.69
2019-05-20T06:58:24.248Z,87.87
2019-05-20T07:00:53.031Z,87.32
2019-05-20T07:03:22.756Z,88.12
2019-05-20T07:05:53.830Z,89.67
2019-05-20T07:08:22.602Z,89.63
2019-05-20T07:10:51.243Z,87.74
2019-05-20T07:13:19.883Z,87.71
2019-05-20T07:15:48.515Z,88.21
2019-05-20T07:18:17.237Z,88.26
2019-05-20T07:20:47.934Z,86.73
2019-05-20T07:23:16.597Z,86.43
2019-05-20T07:25:45.232Z,86.43
2019-05-20T07:28:13.964Z,86.02
2019-05-20T07:30:42.622Z,85.77
2019-05-20T07:33:11.224Z,84.89
2019-05-20T07:35:40.826Z,84.27
2019-05-20T07:38:09.460Z,83.71
2019-05-20T07:40:38.104Z,85.02
2019-05-20T07:43:06.859Z,85.02
2019-05-20T07:45:35.877Z,84.46
2019-05-20T07:48:05.053Z,84.91
2019-05-20T07:50:35.441Z,84.91
2019-05-20T07:53:04.859Z,82.56
2019-05-20T07:55:37.408Z,84.44
2019-05-20T07:58:09.049Z,83.49
2019-05-20T08:00:37.856Z,83.49
2019-05-20T08:03:06.585Z,83.05
2019-05-20T08:05:35.306Z,84.96
2019-05-20T08:08:04.031Z,84.96
2019-05-20T08:10:32.820Z,84.41
2019-05-20T08:13:01.617Z,82.88
2019-05-20T08:15:30.360Z,81.96
2019-05-20T08:17:59.079Z,81.72
2019-05-20T08:20:27.749Z,82.81
2019-05-20T08:22:57.614Z,81.64
2019-05-20T08:25:26.351Z,81.64
2019-05-20T08:27:55.101Z,81.84
2019-05-20T08:30:32.121Z,82.24
2019-05-20T08:33:00.824Z,83.02
2019-05-20T08:35:29.512Z,84.63
2019-05-20T08:37:58.314Z,84.63
2019-05-20T08:40:27.851Z,82.97
2019-05-20T08:42:56.509Z,84.79
2019-05-20T08:45:25.247Z,83.91
2019-05-20T08:47:53.964Z,83.47
2019-05-20T08:50:22.695Z,83.92
2019-05-20T08:52:51.439Z,83.92
2019-05-20T08:55:20.552Z,83.20
2019-05-20T08:57:51.467Z,83.20
2019-05-20T09:00:24.228Z,81.33
2019-05-20T09:02:53.334Z,78.13
2019-05-20T09:05:22.064Z,78.79
2019-05-20T09:08:02.294Z,78.20
2019-05-20T09:10:21.248Z,78.01
2019-05-20T09:12:50.350Z,78.12
2019-05-20T09:15:19.181Z,77.13
2019-05-20T09:17:47.809Z,77.13
2019-05-20T09:20:17.647Z,76.53
2019-05-20T09:22:46.341Z,76.54
2019-05-20T09:25:15.383Z,76.70
2019-05-20T09:27:44.082Z,76.70
2019-05-20T09:30:13.371Z,75.63
2019-05-20T09:32:43.186Z,75.79
2019-05-20T09:35:12.373Z,77.13
2019-05-20T09:37:41.095Z,76.06
2019-05-20T09:40:11.191Z,76.06
2019-05-20T09:42:40.931Z,76.58
2019-05-20T09:45:10.369Z,76.38
2019-05-20T09:47:39.136Z,76.38
2019-05-20T09:50:07.951Z,75.59
2019-05-20T09:52:36.562Z,75.35
2019-05-20T09:55:05.666Z,75.43
2019-05-20T09:57:34.506Z,74.27
2019-05-20T10:00:05.247Z,74.27
2019-05-20T10:02:38.006Z,73.70
2019-05-20T10:05:05.171Z,74.53
2019-05-20T10:07:34.060Z,72.94
2019-05-20T10:10:02.861Z,74.66
2019-05-20T10:12:45.399Z,70.42
2019-05-20T10:15:02.156Z,71.76
2019-05-20T10:17:31.015Z,71.76
2019-05-20T10:19:59.759Z,72.17
2019-05-20T10:22:28.483Z,72.17
2019-05-20T10:24:58.069Z,73.23
2019-05-20T10:27:27.544Z,71.01
2019-05-20T10:29:56.205Z,73.04
2019-05-20T10:32:24.865Z,71.95
2019-05-20T10:34:53.619Z,71.95
2019-05-20T10:37:22.306Z,72.40
2019-05-20T10:39:51.021Z,71.88
2019-05-20T10:42:20.018Z,71.88
2019-05-20T10:44:48.663Z,70.63
2019-05-20T10:47:17.311Z,69.47
2019-05-20T10:49:45.936Z,68.67
2019-05-20T10:52:14.586Z,68.94
2019-05-20T10:54:43.241Z,71.11
2019-05-20T10:57:11.865Z,70.13
2019-05-20T10:59:40.518Z,70.69
2019-05-20T11:02:09.260Z,70.17
2019-05-20T11:04:38.026Z,72.01
2019-05-20T11:07:06.808Z,72.03
2019-05-20T11:09:35.478Z,71.84
2019-05-20T11:12:04.226Z,74.52
2019-05-20T11:14:32.852Z,74.52
2019-05-20T11:17:01.516Z,76.82
2019-05-20T11:19:30.183Z,76.09
2019-05-20T11:21:58.918Z,76.82
2019-05-20T11:24:27.571Z,76.82
2019-05-20T11:26:56.305Z,76.25
2019-05-20T11:29:25.021Z,75.80
2019-05-20T11:31:53.730Z,75.80
2019-05-20T11:34:22.565Z,75.38
2019-05-20T11:36:51.232Z,75.43
2019-05-20T11:39:32.319Z,74.57
2019-05-20T11:41:54.572Z,74.57
2019-05-20T11:44:20.706Z,74.00
2019-05-20T11:46:49.341Z,74.67
2019-05-20T11:49:17.988Z,75.60
2019-05-20T11:51:46.694Z,75.80
2019-05-20T11:54:15.426Z,75.80
2019-05-20T11:56:44.066Z,76.76
2019-05-20T11:59:12.735Z,76.25
2019-05-20T12:01:41.471Z,77.34
2019-05-20T12:04:10.144Z,77.34
2019-05-20T12:06:38.767Z,78.16
2019-05-20T12:09:07.740Z,79.26
2019-05-20T12:11:36.368Z,79.90
2019-05-20T12:14:05.203Z,80.38
2019-05-20T12:16:33.831Z,81.43
2019-05-20T12:19:02.470Z,81.76
2019-05-20T12:21:31.144Z,80.21
2019-05-20T12:24:00.285Z,81.95
2019-05-20T12:26:40.136Z,81.95
2019-05-20T12:29:12.378Z,82.07
2019-05-20T12:31:50.579Z,83.74
2019-05-20T12:34:45.863Z,84.28
2019-05-20T12:37:16.134Z,85.46
2019-05-20T12:39:48.167Z,85.46
2019-05-20T12:42:23.663Z,85.41
2019-05-20T12:47:33.529Z,85.93
2019-05-20T12:50:03.648Z,86.94
2019-05-20T12:52:55.751Z,85.76
2019-05-20T12:55:28.738Z,87.10
2019-05-20T12:58:02.822Z,86.85
2019-05-20T13:00:37.728Z,87.57
2019-05-20T13:03:07.942Z,87.57
2019-05-20T13:05:37.346Z,87.94
2019-05-20T13:08:09.266Z,88.09
2019-05-20T13:10:41.734Z,87.26
2019-05-20T13:13:21.819Z,87.53
2019-05-20T13:15:56.100Z,88.10
2019-05-20T13:18:55.588Z,88.47
2019-05-20T13:21:30.711Z,88.23
2019-05-20T13:24:00.841Z,87.64
2019-05-20T13:26:32.837Z,88.18
2019-05-20T13:29:05.022Z,89.20
2019-05-20T13:31:37.776Z,89.90
2019-05-20T13:34:18.851Z,90.17
2019-05-20T13:36:54.677Z,92.48
2019-05-20T13:39:26.399Z,95.30
2019-05-20T13:41:59.833Z,96.37
2019-05-20T13:44:37.182Z,98.15
2019-05-20T13:47:06.398Z,97.75
2019-05-20T13:49:39.604Z,98.63
2019-05-20T13:52:10.758Z,100.00
2019-05-20T13:54:43.831Z,100.00
2019-05-20T13:57:17.368Z,100.00
2019-05-20T13:59:57.562Z,100.00
2019-05-20T14:02:28.882Z,100.00
2019-05-20T14:05:13.740Z,100.00
2019-05-20T14:07:48.751Z,100.00
2019-05-20T14:10:22.562Z,100.00
2019-05-20T14:16:10.686Z,100.00
2019-05-20T14:18:57.423Z,100.00
2019-05-20T14:21:34.837Z,100.00
2019-05-20T14:24:16.903Z,100.00
2019-05-20T14:26:54.828Z,100.00
2019-05-20T14:29:26.980Z,100.00
2019-05-20T14:32:04.862Z,100.00
2019-05-20T14:34:36.746Z,100.00
2019-05-20T14:37:09.037Z,100.00
2019-05-20T14:39:38.189Z,100.00
2019-05-20T14:42:11.053Z,100.00
2019-05-20T14:44:43.796Z,99.91
2019-05-20T14:47:13.842Z,100.00
2019-05-20T14:49:48.924Z,99.56
2019-05-20T14:52:19.522Z,98.54
2019-05-20T14:54:50.501Z,98.81
2019-05-20T14:57:36.720Z,99.52
2019-05-20T15:00:08.229Z,99.09
2019-05-20T15:02:39.687Z,100.00
2019-05-20T15:05:12.301Z,99.92
2019-05-20T15:07:41.432Z,98.81
2019-05-20T15:10:15.690Z,98.11
2019-05-20T15:12:44.999Z,98.19
2019-05-20T15:15:23.461Z,98.43
2019-05-20T15:17:59.554Z,99.39
2019-05-20T15:20:40.872Z,98.46
2019-05-20T15:23:02.802Z,99.15
2019-05-20T15:25:53.859Z,99.03
2019-05-20T15:28:22.665Z,99.37
2019-05-20T15:30:51.340Z,99.11
2019-05-20T15:33:24.273Z,99.48
2019-05-20T15:36:02.465Z,100.00
2019-05-20T15:38:39.822Z,99.31
2019-05-20T15:41:08.448Z,98.31
2019-05-20T15:43:37.109Z,99.69
2019-05-20T15:46:05.804Z,98.77
2019-05-20T15:48:34.466Z,99.56
2019-05-20T15:51:03.184Z,100.00
2019-05-20T15:53:31.830Z,100.00
2019-05-20T15:56:00.542Z,100.00
2019-05-20T15:58:29.166Z,99.56
2019-05-20T16:00:57.806Z,98.92
2019-05-20T16:03:26.489Z,98.28
2019-05-20T16:05:59.427Z,98.54
2019-05-20T16:08:25.547Z,98.47
2019-05-20T16:10:54.180Z,98.27
2019-05-20T16:13:22.837Z,99.27
2019-05-20T16:15:51.482Z,98.71
2019-05-20T16:18:20.155Z,99.06
2019-05-20T16:20:48.807Z,99.08
2019-05-20T16:23:17.459Z,98.16
2019-05-20T16:25:46.202Z,97.37
2019-05-20T16:28:14.956Z,97.83
2019-05-20T16:30:43.790Z,96.91
2019-05-20T16:33:12.482Z,97.64
2019-05-20T16:35:41.190Z,98.13
2019-05-20T16:38:09.910Z,96.94
2019-05-20T16:40:38.532Z,97.89
2019-05-20T16:43:07.353Z,96.21
2019-05-20T16:45:36.039Z,96.70
2019-05-20T16:48:04.775Z,96.89
2019-05-20T16:50:33.608Z,95.90
2019-05-20T16:53:02.312Z,96.57
2019-05-20T16:55:31.063Z,96.90
2019-05-20T16:57:59.821Z,96.28
2019-05-20T17:00:32.047Z,95.73
2019-05-20T17:02:58.899Z,96.00
2019-05-20T17:05:27.542Z,95.93
2019-05-20T17:07:56.281Z,95.53
2019-05-20T17:10:25.018Z,95.71
2019-05-20T17:12:53.682Z,96.10
2019-05-20T17:15:22.483Z,95.76
2019-05-20T17:17:51.188Z,96.79
2019-05-20T17:20:19.934Z,97.03
2019-05-20T17:22:48.530Z,96.14
2019-05-20T17:25:17.278Z,95.78
2019-05-20T17:27:45.884Z,97.76
2019-05-20T17:30:14.733Z,96.64
2019-05-20T17:32:43.580Z,95.63
2019-05-20T17:35:17.739Z,95.24
2019-05-20T17:37:56.657Z,96.05
2019-05-20T17:40:27.313Z,95.95
2019-05-20T17:43:03.024Z,96.97
2019-05-20T17:45:49.348Z,97.72
2019-05-20T17:48:31.632Z,95.78
2019-05-20T17:51:10.584Z,95.46
2019-05-20T17:54:00.413Z,95.26
2019-05-20T17:56:29.511Z,94.82
2019-05-20T17:59:00.780Z,95.16
2019-05-20T18:01:31.492Z,94.69
2019-05-20T18:04:03.977Z,95.71
2019-05-20T18:06:45.152Z,95.96
2019-05-20T18:09:38.776Z,94.58
2019-05-20T18:12:08.295Z,94.00
2019-05-20T18:14:39.030Z,93.28
2019-05-20T18:17:11.467Z,93.68
2019-05-20T18:19:43.196Z,93.37
2019-05-20T18:22:16.301Z,93.61
2019-05-20T18:25:04.748Z,94.05
2019-05-20T18:27:34.110Z,94.09
2019-05-20T18:30:07.254Z,93.71
2019-05-20T18:32:39.041Z,94.11
2019-05-20T18:35:12.930Z,94.12
2019-05-20T18:37:45.165Z,93.75
2019-05-20T18:40:17.151Z,93.83
2019-05-20T18:42:46.639Z,93.88
2019-05-20T18:45:17.153Z,94.53
2019-05-20T18:47:50.371Z,94.28
2019-05-20T18:50:23.167Z,94.36
2019-05-20T18:52:53.457Z,94.33
2019-05-20T18:55:22.459Z,94.59
2019-05-20T18:57:55.144Z,95.08
2019-05-20T19:00:25.224Z,95.29
2019-05-20T19:02:55.002Z,95.50
2019-05-20T19:05:29.560Z,97.76
2019-05-20T19:08:07.372Z,97.36
2019-05-20T19:10:41.158Z,97.96
2019-05-20T19:13:14.445Z,98.60
2019-05-20T19:15:48.062Z,98.28
2019-05-20T19:18:20.068Z,98.65
2019-05-20T19:20:52.020Z,99.12
2019-05-20T19:23:25.466Z,98.82
2019-05-20T19:25:55.692Z,99.73
2019-05-20T19:28:28.703Z,100.00
2019-05-20T19:30:58.281Z,99.99
2019-05-20T19:33:35.225Z,99.01
2019-05-20T19:36:20.470Z,99.23
2019-05-20T19:38:52.627Z,99.49
2019-05-20T19:41:24.381Z,99.22
2019-05-20T19:43:55.008Z,99.11
2019-05-20T19:46:30.683Z,99.95
2019-05-20T19:49:08.192Z,99.51
2019-05-20T19:51:38.869Z,100.00
2019-05-20T19:54:09.875Z,99.43
2019-05-20T19:56:39.605Z,99.31
2019-05-20T19:59:19.028Z,99.04
2019-05-20T20:01:51.244Z,99.03
2019-05-20T20:04:22.244Z,97.75
2019-05-20T20:07:00.769Z,97.85
2019-05-20T20:09:34.003Z,98.16
2019-05-20T20:12:07.782Z,97.79
2019-05-20T20:14:43.318Z,97.99
2019-05-20T20:17:23.037Z,98.38
2019-05-20T20:19:58.152Z,98.40
2019-05-20T20:22:30.233Z,97.87
2019-05-20T20:25:02.979Z,97.49
2019-05-20T20:27:36.606Z,97.16
2019-05-20T20:30:18.515Z,97.30
2019-05-20T20:32:51.039Z,96.74
2019-05-20T20:35:37.358Z,97.30
2019-05-20T20:37:56.718Z,97.45
2019-05-20T20:40:26.704Z,97.68
2019-05-20T20:43:05.304Z,97.45
2019-05-20T20:45:37.786Z,97.92
2019-05-20T20:48:08.327Z,98.57
2019-05-20T20:50:41.099Z,99.17
2019-05-20T20:53:17.808Z,98.98
2019-05-20T20:55:47.752Z,99.22
2019-05-20T20:58:19.690Z,99.39
2019-05-20T21:00:50.347Z,99.38
2019-05-20T21:03:20.640Z,99.35
2019-05-20T21:05:52.662Z,99.20
2019-05-20T21:08:21.989Z,99.44
2019-05-20T21:10:51.466Z,98.85
2019-05-20T21:13:23.367Z,99.43
2019-05-20T21:15:58.512Z,99.33
2019-05-20T21:18:42.065Z,99.44
2019-05-20T21:21:12.630Z,100.00
2019-05-20T21:23:42.864Z,100.00
2019-05-20T21:26:17.444Z,99.67
2019-05-20T21:28:48.662Z,98.98
2019-05-20T21:31:31.546Z,100.00
2019-05-20T21:34:01.429Z,99.59
2019-05-20T21:36:30.198Z,99.39
2019-05-20T21:38:58.910Z,99.49
2019-05-20T21:41:27.553Z,99.47
2019-05-20T21:43:56.195Z,99.37
2019-05-20T21:46:24.880Z,99.70
2019-05-20T21:48:53.523Z,99.31
2019-05-20T21:51:22.171Z,99.24
2019-05-20T21:53:50.823Z,99.37
2019-05-20T21:56:19.453Z,99.35
2019-05-20T21:58:48.101Z,99.38
2019-05-20T22:01:16.818Z,99.63
2019-05-20T22:03:45.526Z,99.95
2019-05-20T22:06:14.162Z,99.65
2019-05-20T22:08:42.894Z,99.69
2019-05-20T22:11:11.764Z,99.59
2019-05-20T22:13:40.413Z,99.51
2019-05-20T22:16:09.308Z,99.47
2019-05-20T22:18:37.951Z,100.00
2019-05-20T22:21:08.291Z,100.00
2019-05-20T22:23:41.843Z,99.51
2019-05-20T22:26:10.540Z,99.73
2019-05-20T22:28:39.171Z,99.88
2019-05-20T22:31:07.895Z,99.90
2019-05-20T22:33:41.345Z,100.00
2019-05-20T22:36:07.216Z,100.00
2019-05-20T22:38:35.861Z,100.00
2019-05-20T22:41:04.593Z,100.00
2019-05-20T22:43:33.250Z,100.00
2019-05-20T22:46:01.956Z,100.00
2019-05-20T22:48:30.613Z,100.00
2019-05-20T22:50:59.350Z,100.00
2019-05-20T22:53:27.984Z,100.00
2019-05-20T22:55:56.695Z,100.00
2019-05-20T22:58:25.323Z,100.00
2019-05-20T23:00:53.959Z,100.00
2019-05-20T23:03:23.512Z,100.00
2019-05-20T23:05:52.160Z,100.00
2019-05-20T23:08:20.829Z,100.00
2019-05-20T23:10:49.623Z,100.00
2019-05-20T23:13:18.253Z,100.00
2019-05-20T23:15:46.982Z,100.00
2019-05-20T23:18:15.641Z,100.00
2019-05-20T23:20:44.369Z,100.00
2019-05-20T23:23:13.042Z,100.00
2019-05-20T23:25:41.771Z,100.00
2019-05-20T23:28:10.507Z,100.00
2019-05-20T23:30:39.166Z,100.00
2019-05-20T23:33:07.790Z,100.00
2019-05-20T23:35:36.447Z,100.00
2019-05-20T23:38:05.163Z,100.00
2019-05-20T23:40:33.956Z,100.00
2019-05-20T23:43:02.734Z,100.00
2019-05-20T23:45:31.410Z,100.00
2019-05-20T23:48:00.092Z,100.00
2019-05-20T23:50:28.756Z,100.00
2019-05-20T23:52:57.397Z,100.00
2019-05-20T23:55:26.065Z,100.00
2019-05-20T23:57:54.702Z,100.00
